Time;durP1;ratioP1;P1;durP2;ratioP2;P2;SDS_P1;SDS_P2;PMS_P1;PMS_P2;Temp;Humidity;BMP_temperature;BMP_pressure;BME280_temperature;BME280_humidity;BME280_pressure;Samples;Min_cycle;Max_cycle;Signal;HPM_P1;HPM_P2
2022/05/20 00:00:13;;;;;;;;;;;;;;;19.55;66.40;97041.97;5054569;28;19957;-72
2022/05/20 00:02:42;;;;;;;;;;;;;;;19.49;66.49;97038.50;5054685;28;19958;-72
2022/05/20 00:05:08;;;;;;;;;;;;;;;19.44;67.11;97038.47;5054796;28;20046;-72
2022/05/20 00:07:35;;;;;;;;;;;;;;;19.37;67.07;97029.94;5054868;28;19952;-72
2022/05/20 00:10:02;;;;;;;;;;;;;;;19.31;66.91;97031.75;5054453;28;19961;-72
2022/05/20 00:12:28;;;;;;;;;;;;;;;19.29;67.22;97036.53;5054247;28;19973;-72
2022/05/20 00:14:54;;;;;;;;;;;;;;;19.24;67.13;97028.56;5054492;28;20001;-72
2022/05/20 00:17:19;;;;;;;;;;;;;;;19.19;67.46;97026.69;5054259;28;20480;-72
2022/05/20 00:19:45;;;;;;;;;;;;;;;19.15;67.48;97017.63;5052901;28;19986;-72
2022/05/20 00:22:11;;;;;;;;;;;;;;;19.11;67.50;97013.88;5054401;28;19948;-72
2022/05/20 00:25:45;;;;;;;;;;;;;;;19.08;67.79;97022.34;5036436;28;20048;-72
2022/05/20 00:27:23;;;;;;;;;;;;;;;19.04;67.61;97014.06;5054130;28;19956;-72
2022/05/20 00:29:49;;;;;;;;;;;;;;;19.02;67.77;97015.41;5053845;28;19986;-72
2022/05/20 00:32:15;;;;;;;;;;;;;;;18.99;68.32;97013.28;5054067;28;20375;-72
2022/05/20 00:34:41;;;;;;;;;;;;;;;18.96;68.69;97016.44;5054148;28;19987;-72
2022/05/20 00:37:06;;;;;;;;;;;;;;;18.92;68.61;97010.03;5053309;28;20048;-72
2022/05/20 00:39:32;;;;;;;;;;;;;;;18.89;69.00;97015.88;5054090;28;20017;-72
2022/05/20 00:41:58;;;;;;;;;;;;;;;18.86;68.98;97010.00;5053984;28;20393;-72
2022/05/20 00:44:25;;;;;;;;;;;;;;;18.84;68.73;97006.81;5052752;28;19977;-72
2022/05/20 00:46:54;;;;;;;;;;;;;;;18.81;69.45;97009.16;5053359;28;19957;-72
2022/05/20 00:49:20;;;;;;;;;;;;;;;18.78;69.22;97001.69;5053331;28;20332;-72
2022/05/20 00:51:48;;;;;;;;;;;;;;;18.75;69.40;97002.19;5053622;28;19957;-72
2022/05/20 00:54:22;;;;;;;;;;;;;;;18.73;69.33;97002.47;5054304;28;20294;-71
2022/05/20 00:57:09;;;;;;;;;;;;;;;18.69;69.42;97003.22;5053182;28;19980;-72
2022/05/20 00:59:37;;;;;;;;;;;;;;;18.65;69.36;96990.44;5054071;28;19956;-72
2022/05/20 01:02:06;;;;;;;;;;;;;;;18.62;68.91;96998.91;5053618;28;19953;-72
2022/05/20 01:04:32;;;;;;;;;;;;;;;18.61;69.79;96994.69;5053572;28;19961;-72
2022/05/20 01:06:59;;;;;;;;;;;;;;;18.57;69.96;96990.94;5053646;28;20461;-72
2022/05/20 01:09:25;;;;;;;;;;;;;;;18.53;70.24;96992.50;5052938;28;19961;-72
2022/05/20 01:11:51;;;;;;;;;;;;;;;18.51;70.18;96988.50;5052964;28;20357;-72
2022/05/20 01:14:22;;;;;;;;;;;;;;;18.47;70.09;96996.16;5053558;28;19979;-72
2022/05/20 01:16:48;;;;;;;;;;;;;;;18.43;69.59;96990.56;5053235;28;20671;-72
2022/05/20 01:19:18;;;;;;;;;;;;;;;18.42;69.60;96996.16;5038717;28;20015;-72
2022/05/20 01:21:44;;;;;;;;;;;;;;;18.41;69.58;97002.50;5053614;28;19951;-72
2022/05/20 01:24:10;;;;;;;;;;;;;;;18.38;70.52;96997.72;5053520;28;19989;-72
2022/05/20 01:26:36;;;;;;;;;;;;;;;18.34;70.71;96993.97;5053443;28;19958;-72
2022/05/20 01:29:02;;;;;;;;;;;;;;;18.31;70.86;96997.09;5053370;28;19993;-72
2022/05/20 01:31:28;;;;;;;;;;;;;;;18.27;70.81;96983.56;5053389;28;20338;-72
2022/05/20 01:33:53;;;;;;;;;;;;;;;18.24;70.46;96986.69;5053202;28;19960;-72
2022/05/20 01:36:21;;;;;;;;;;;;;;;18.20;70.78;96990.91;5053139;28;19965;-73
2022/05/20 01:38:48;;;;;;;;;;;;;;;18.16;70.72;96981.84;5053586;28;19950;-72
2022/05/20 01:41:29;;;;;;;;;;;;;;;18.13;70.97;96987.69;5053087;28;19958;-72
2022/05/20 01:44:03;;;;;;;;;;;;;;;18.11;71.15;96976.50;5053309;28;19968;-72
2022/05/20 01:46:52;;;;;;;;;;;;;;;18.09;71.70;96978.63;5053249;28;19969;-72
2022/05/20 01:49:18;;;;;;;;;;;;;;;18.06;71.41;96969.31;5046908;28;19954;-72
2022/05/20 01:51:50;;;;;;;;;;;;;;;18.03;71.68;96975.91;5057361;28;20436;-71
2022/05/20 01:54:30;;;;;;;;;;;;;;;18.02;71.01;96968.22;5057141;28;19958;-72
2022/05/20 01:57:03;;;;;;;;;;;;;;;18.01;71.39;96974.56;5057281;28;19969;-72
2022/05/20 01:59:36;;;;;;;;;;;;;;;17.99;71.81;96974.81;5057212;28;19956;-72
2022/05/20 02:02:06;;;;;;;;;;;;;;;17.96;71.76;96975.31;5057291;28;19978;-72
2022/05/20 02:04:35;;;;;;;;;;;;;;;17.96;71.78;96972.66;5056934;28;19961;-72
2022/05/20 02:07:06;;;;;;;;;;;;;;;17.94;72.17;96972.13;5056664;28;19956;-72
2022/05/20 02:09:41;;;;;;;;;;;;;;;17.94;71.58;96972.13;5057411;28;20394;-72
2022/05/20 02:12:11;;;;;;;;;;;;;;;17.94;71.95;96971.31;5056735;28;20071;-71
2022/05/20 02:14:46;;;;;;;;;;;;;;;17.91;72.36;96969.16;5056813;28;19955;-72
2022/05/20 02:17:15;;;;;;;;;;;;;;;17.88;72.39;96969.69;5046253;28;19963;-72
2022/05/20 02:19:44;;;;;;;;;;;;;;;17.86;72.68;96969.91;5056746;28;19959;-72
2022/05/20 02:22:13;;;;;;;;;;;;;;;17.83;72.74;96965.94;5056467;28;19957;-72
2022/05/20 02:24:40;;;;;;;;;;;;;;;17.79;72.35;96959.47;5056791;28;19977;-72
2022/05/20 02:27:08;;;;;;;;;;;;;;;17.75;72.51;96966.34;5056368;28;19955;-72
2022/05/20 02:29:38;;;;;;;;;;;;;;;17.71;72.15;96962.59;5056573;28;19960;-72
2022/05/20 02:32:07;;;;;;;;;;;;;;;17.70;72.25;96962.84;5056082;28;19957;-72
2022/05/20 02:34:34;;;;;;;;;;;;;;;17.65;72.51;96972.34;5056882;28;19960;-72
2022/05/20 02:37:20;;;;;;;;;;;;;;;17.63;72.48;96971.78;5056289;28;19976;-72
2022/05/20 02:39:46;;;;;;;;;;;;;;;17.59;72.55;96975.19;5055462;28;19959;-72
2022/05/20 02:42:12;;;;;;;;;;;;;;;17.56;73.09;96975.72;5056072;28;19963;-72
2022/05/20 02:44:38;;;;;;;;;;;;;;;17.53;73.04;96978.84;5056049;28;20006;-72
2022/05/20 02:47:04;;;;;;;;;;;;;;;17.51;73.28;96978.28;5056032;28;19959;-72
2022/05/20 02:49:30;;;;;;;;;;;;;;;17.48;73.40;96974.28;5055985;28;20468;-72
2022/05/20 02:51:56;;;;;;;;;;;;;;;17.46;73.84;96965.78;5056110;28;19961;-72
2022/05/20 02:54:22;;;;;;;;;;;;;;;17.45;73.85;96972.94;5056117;28;20432;-72
2022/05/20 02:56:47;;;;;;;;;;;;;;;17.44;74.24;96963.38;5037981;28;20054;-72
2022/05/20 03:04:46;;;;;;;;;;;;;;;17.41;74.18;96963.88;5055986;28;19949;-72
2022/05/20 03:07:13;;;;;;;;;;;;;;;17.41;74.50;96969.19;5055571;28;20339;-72
2022/05/20 03:09:39;;;;;;;;;;;;;;;17.40;74.19;96969.44;5055804;28;20559;-72
2022/05/20 03:12:06;;;;;;;;;;;;;;;17.39;74.63;96960.69;5055592;28;19981;-72
2022/05/20 03:14:32;;;;;;;;;;;;;;;17.39;74.61;96965.97;5055785;28;19967;-72
2022/05/20 03:16:59;;;;;;;;;;;;;;;17.39;74.89;96957.22;5055421;28;19967;-72
2022/05/20 03:19:30;;;;;;;;;;;;;;;17.35;74.70;96951.63;5055633;28;19961;-72
2022/05/20 03:22:06;;;;;;;;;;;;;;;17.36;75.26;96960.38;5055888;28;19976;-72
2022/05/20 03:24:32;;;;;;;;;;;;;;;17.36;75.27;96957.72;5055381;28;19958;-72
2022/05/20 03:26:58;;;;;;;;;;;;;;;17.36;75.68;96963.81;5055388;28;19951;-72
2022/05/20 03:29:25;;;;;;;;;;;;;;;17.35;76.17;96959.56;5055522;28;19985;-72
2022/05/20 03:31:51;;;;;;;;;;;;;;;17.36;75.71;96955.84;5055148;28;19956;-72
2022/05/20 03:34:18;;;;;;;;;;;;;;;17.38;76.19;96958.28;5055244;28;19962;-72
2022/05/20 03:36:45;;;;;;;;;;;;;;;17.39;76.52;96963.31;5055018;28;19950;-72
2022/05/20 03:39:12;;;;;;;;;;;;;;;17.40;76.28;96961.47;5055033;28;19958;-72
2022/05/20 03:41:38;;;;;;;;;;;;;;;17.41;77.11;96965.75;5054845;28;19961;-72
2022/05/20 03:44:05;;;;;;;;;;;;;;;17.41;77.17;96965.75;5055247;28;19967;-72
2022/05/20 03:46:31;;;;;;;;;;;;;;;17.42;77.29;96968.13;5054968;28;19961;-72
2022/05/20 03:49:00;;;;;;;;;;;;;;;17.41;76.79;96971.84;5055034;28;20427;-72
2022/05/20 03:51:27;;;;;;;;;;;;;;;17.42;77.15;96967.31;5055069;28;20333;-72
2022/05/20 03:53:52;;;;;;;;;;;;;;;17.43;76.49;96967.09;5054721;28;19954;-72
2022/05/20 03:56:19;;;;;;;;;;;;;;;17.44;76.30;96960.72;5054727;28;19959;-72
2022/05/20 03:58:44;;;;;;;;;;;;;;;17.45;76.41;96975.59;5054718;28;20437;-72
2022/05/20 04:03:56;;;;;;;;;;;;;;;17.48;76.42;96970.84;5054764;28;19965;-72
2022/05/20 04:06:22;;;;;;;;;;;;;;;17.49;76.67;96969.78;5054571;28;19958;-72
2022/05/20 04:08:48;;;;;;;;;;;;;;;17.45;77.04;96967.63;5054627;28;19968;-72
2022/05/20 04:11:15;;;;;;;;;;;;;;;17.47;76.76;96969.22;5054405;28;19984;-72
2022/05/20 04:13:42;;;;;;;;;;;;;;;17.47;76.23;96966.56;5053624;28;19963;-72
2022/05/20 04:16:09;;;;;;;;;;;;;;;17.48;76.26;96968.19;5054325;28;19966;-72
2022/05/20 04:18:35;;;;;;;;;;;;;;;17.48;76.70;96966.34;5054321;28;19973;-72
2022/05/20 04:21:01;;;;;;;;;;;;;;;17.49;76.02;96964.47;5054224;28;20398;-72
2022/05/20 04:23:27;;;;;;;;;;;;;;;17.50;75.44;96964.22;5054463;28;19959;-72
2022/05/20 04:25:53;;;;;;;;;;;;;;;17.53;75.97;96962.94;5054164;28;20389;-72
2022/05/20 04:28:18;;;;;;;;;;;;;;;17.55;75.63;96963.47;5054010;28;19959;-72
2022/05/20 04:30:44;;;;;;;;;;;;;;;17.58;75.39;96960.34;5054204;28;19963;-72
2022/05/20 04:33:10;;;;;;;;;;;;;;;17.62;76.10;96967.56;5054136;28;19971;-72
2022/05/20 04:35:36;;;;;;;;;;;;;;;17.66;75.23;96965.22;5053918;28;19957;-72
2022/05/20 04:38:02;;;;;;;;;;;;;;;17.74;74.90;96963.94;5053914;28;19977;-72
2022/05/20 04:40:28;;;;;;;;;;;;;;;17.82;74.90;96963.47;5053765;28;19954;-72
2022/05/20 04:48:23;;;;;;;;;;;;;;;18.17;74.18;96954.28;5053861;28;20399;-72
2022/05/20 04:50:49;;;;;;;;;;;;;;;18.35;73.93;96966.34;5053998;28;20051;-72
2022/05/20 04:54:49;;;;;;;;;;;;;;;18.52;74.00;96967.00;5053685;28;19956;-73
2022/05/20 04:56:01;;;;;;;;;;;;;;;18.77;72.38;96962.88;5053959;28;19964;-72
2022/05/20 04:58:27;;;;;;;;;;;;;;;18.95;70.49;96962.47;5053495;28;20449;-72
2022/05/20 05:00:54;;;;;;;;;;;;;;;19.11;69.96;96966.00;5053589;28;20414;-72
2022/05/20 05:03:20;;;;;;;;;;;;;;;19.28;69.64;96963.16;5053955;28;19950;-72
2022/05/20 05:05:46;;;;;;;;;;;;;;;19.40;69.68;96966.38;5053670;28;20401;-73
2022/05/20 05:08:14;;;;;;;;;;;;;;;19.59;69.45;96960.56;5035722;28;20004;-72
2022/05/20 05:10:40;;;;;;;;;;;;;;;19.76;68.58;96963.00;5053257;28;19991;-72
2022/05/20 05:13:06;;;;;;;;;;;;;;;19.86;68.77;96963.84;5051724;28;20046;-72
2022/05/20 05:15:32;;;;;;;;;;;;;;;20.02;67.92;96963.84;5053331;28;19963;-72
2022/05/20 05:18:12;;;;;;;;;;;;;;;20.10;67.72;96968.66;5053275;28;19969;-72
2022/05/20 05:21:04;;;;;;;;;;;;;;;20.10;66.97;96967.88;5053638;28;19961;-72
2022/05/20 05:23:30;;;;;;;;;;;;;;;20.21;66.28;96974.78;5041792;28;19957;-72
2022/05/20 05:25:55;;;;;;;;;;;;;;;20.25;65.97;96959.88;5053604;28;19966;-72
2022/05/20 05:28:22;;;;;;;;;;;;;;;20.45;66.53;96972.34;5053317;28;19993;-72
2022/05/20 05:30:49;;;;;;;;;;;;;;;20.63;65.72;96960.38;5053425;28;19951;-72
2022/05/20 05:33:15;;;;;;;;;;;;;;;20.79;65.21;96967.28;5053478;28;19955;-72
2022/05/20 05:35:41;;;;;;;;;;;;;;;21.07;64.43;96957.06;5053557;28;20032;-72
2022/05/20 05:38:07;;;;;;;;;;;;;;;21.27;64.25;96961.50;5053046;28;19974;-72
2022/05/20 05:40:33;;;;;;;;;;;;;;;21.42;63.63;96956.13;5053298;28;19966;-72
2022/05/20 05:42:59;;;;;;;;;;;;;;;21.58;63.29;96948.03;5053072;28;19959;-73
2022/05/20 05:45:27;;;;;;;;;;;;;;;21.80;62.99;96944.97;5053232;28;20322;-73
2022/05/20 05:47:57;;;;;;;;;;;;;;;21.96;61.09;96930.41;5053105;28;19957;-73
2022/05/20 05:50:23;;;;;;;;;;;;;;;22.03;61.35;96938.13;5053402;28;19957;-73
2022/05/20 05:53:00;;;;;;;;;;;;;;;22.08;61.28;96924.72;5035486;28;20298;-73
2022/05/20 05:55:27;;;;;;;;;;;;;;;22.26;60.64;96932.06;5053354;28;20308;-73
2022/05/20 05:57:53;;;;;;;;;;;;;;;22.39;59.72;96911.13;5053039;28;19967;-73
2022/05/20 06:00:19;;;;;;;;;;;;;;;22.49;57.77;96889.63;5052853;28;19960;-72
2022/05/20 06:02:46;;;;;;;;;;;;;;;22.56;60.20;96916.81;5053325;28;19963;-71
2022/05/20 06:05:12;;;;;;;;;;;;;;;22.77;58.18;96901.34;5052901;28;20430;-71
2022/05/20 06:07:37;;;;;;;;;;;;;;;22.89;56.61;96885.69;5053344;28;20418;-71
2022/05/20 06:10:04;;;;;;;;;;;;;;;22.99;56.85;96883.97;5053152;28;19983;-71
2022/05/20 06:12:31;;;;;;;;;;;;;;;23.13;57.75;96892.13;5052674;28;19992;-71
2022/05/20 06:14:57;;;;;;;;;;;;;;;23.28;55.98;96876.63;5053651;28;19975;-71
2022/05/20 06:17:23;;;;;;;;;;;;;;;23.35;56.10;96872.81;5052743;28;19955;-71
2022/05/20 06:19:49;;;;;;;;;;;;;;;23.40;55.46;96867.41;5052844;28;20467;-71
2022/05/20 06:22:15;;;;;;;;;;;;;;;23.44;55.67;96873.75;5052975;28;20426;-71
2022/05/20 06:24:40;;;;;;;;;;;;;;;23.38;55.14;96864.22;5052779;28;20010;-72
2022/05/20 06:27:06;;;;;;;;;;;;;;;23.37;55.15;96868.78;5044057;28;19999;-71
2022/05/20 06:29:32;;;;;;;;;;;;;;;23.46;56.22;96885.75;5052678;28;20443;-71
2022/05/20 06:31:58;;;;;;;;;;;;;;;23.68;55.26;96863.72;5052646;28;19961;-71
2022/05/20 06:34:24;;;;;;;;;;;;;;;23.87;54.88;96860.25;5053000;28;20028;-71
2022/05/20 06:39:50;;;;;;;;;;;;;;;24.00;53.77;96850.66;5038226;28;19976;-72
2022/05/20 06:42:16;;;;;;;;;;;;;;;24.11;53.98;96852.09;5043127;28;20398;-71
2022/05/20 06:44:45;;;;;;;;;;;;;;;23.91;52.65;96842.50;5055938;28;19968;-70
2022/05/20 06:47:12;;;;;;;;;;;;;;;23.94;52.77;96849.97;5056153;28;19980;-71
2022/05/20 06:49:38;;;;;;;;;;;;;;;23.99;53.75;96854.44;5056147;28;20052;-71
2022/05/20 06:52:04;;;;;;;;;;;;;;;24.20;54.18;96861.03;5055890;28;20433;-71
2022/05/20 06:54:31;;;;;;;;;;;;;;;24.19;53.18;96843.38;5056039;28;19969;-71
2022/05/20 06:56:56;;;;;;;;;;;;;;;24.22;53.38;96850.00;5055825;28;19961;-71
2022/05/20 06:59:23;;;;;;;;;;;;;;;24.42;53.75;96849.63;5056162;28;19973;-71
2022/05/20 07:01:49;;;;;;;;;;;;;;;24.55;52.18;96832.00;5056369;28;19961;-71
2022/05/20 07:04:15;;;;;;;;;;;;;;;24.59;52.51;96838.34;5055859;28;19952;-71
2022/05/20 07:06:41;;;;;;;;;;;;;;;24.53;53.02;96850.25;5037843;28;20019;-71
2022/05/20 07:09:07;;;;;;;;;;;;;;;24.64;52.67;96843.59;5055648;28;19956;-71
2022/05/20 07:11:33;;;;;;;;;;;;;;;24.82;53.33;96841.09;5055641;28;19991;-71
2022/05/20 07:13:59;;;;;;;;;;;;;;;24.78;51.16;96826.69;5055755;28;19975;-71
2022/05/20 07:16:26;;;;;;;;;;;;;;;24.76;51.79;96840.41;5055741;28;20048;-71
2022/05/20 07:18:52;;;;;;;;;;;;;;;24.69;50.12;96816.69;5055540;28;19967;-71
2022/05/20 07:21:18;;;;;;;;;;;;;;;24.61;51.22;96825.44;5055396;28;19959;-72
2022/05/20 07:23:44;;;;;;;;;;;;;;;24.60;51.78;96823.84;5055270;28;19961;-71
2022/05/20 07:26:10;;;;;;;;;;;;;;;24.62;50.86;96820.84;5055483;28;20312;-72
2022/05/20 07:28:36;;;;;;;;;;;;;;;24.71;51.69;96825.22;5055762;28;19988;-72
2022/05/20 07:31:28;;;;;;;;;;;;;;;25.01;52.29;96817.63;5055601;28;20442;-71
2022/05/20 07:33:54;;;;;;;;;;;;;;;25.19;51.62;96825.81;5055221;28;19962;-72
2022/05/20 07:36:20;;;;;;;;;;;;;;;25.35;51.34;96810.19;5055089;28;19961;-71
2022/05/20 07:38:46;;;;;;;;;;;;;;;25.44;50.43;96803.00;5055265;28;19971;-71
2022/05/20 07:41:12;;;;;;;;;;;;;;;25.48;50.39;96807.44;5055578;28;19982;-71
2022/05/20 07:43:39;;;;;;;;;;;;;;;25.57;48.28;96780.63;5055016;28;20030;-71
2022/05/20 07:46:06;;;;;;;;;;;;;;;25.56;51.08;96811.28;5053597;28;19976;-71
2022/05/20 07:48:32;;;;;;;;;;;;;;;25.64;50.07;96802.50;5055074;28;19953;-71
2022/05/20 07:51:12;;;;;;;;;;;;;;;25.78;50.33;96815.84;5037048;28;19953;-70
2022/05/20 07:54:09;;;;;;;;;;;;;;;25.90;48.76;96807.25;5053268;28;20335;-71
2022/05/20 07:56:39;;;;;;;;;;;;;;;25.92;49.06;96802.38;5054757;28;19955;-72
2022/05/20 07:59:12;;;;;;;;;;;;;;;25.94;49.17;96802.84;5054504;28;19964;-71
2022/05/20 08:01:40;;;;;;;;;;;;;;;25.98;48.28;96793.06;5054754;28;19956;-71
2022/05/20 08:06:54;;;;;;;;;;;;;;;26.24;48.04;96795.84;5054292;28;19968;-71
2022/05/20 08:09:20;;;;;;;;;;;;;;;26.37;48.80;96798.75;5053408;28;19955;-71
2022/05/20 08:11:46;;;;;;;;;;;;;;;26.47;47.71;96790.41;5054257;28;19983;-71
2022/05/20 08:14:12;;;;;;;;;;;;;;;26.38;47.79;96800.34;5054506;28;19960;-72
2022/05/20 08:16:38;;;;;;;;;;;;;;;26.32;47.89;96802.38;5054508;28;20349;-71
2022/05/20 08:19:04;;;;;;;;;;;;;;;26.36;49.59;96818.69;5053865;28;20026;-71
2022/05/20 08:21:31;;;;;;;;;;;;;;;26.38;49.08;96814.59;5054201;28;19967;-71
2022/05/20 08:23:57;;;;;;;;;;;;;;;26.45;48.15;96798.00;5052957;28;19957;-71
2022/05/20 08:26:23;;;;;;;;;;;;;;;26.42;48.71;96807.47;5054082;28;20309;-71
2022/05/20 08:28:49;;;;;;;;;;;;;;;26.39;48.80;96801.94;5054322;28;20003;-71
2022/05/20 08:31:15;;;;;;;;;;;;;;;26.42;49.40;96809.38;5054052;28;20310;-71
2022/05/20 08:33:41;;;;;;;;;;;;;;;26.57;49.42;96794.75;5054021;28;20390;-71
2022/05/20 08:36:07;;;;;;;;;;;;;;;26.57;48.57;96795.53;5054215;28;19955;-71
2022/05/20 08:38:33;;;;;;;;;;;;;;;26.56;48.93;96810.03;5053984;28;20014;-71
2022/05/20 08:41:00;;;;;;;;;;;;;;;26.64;48.85;96805.81;5054075;28;19958;-72
2022/05/20 08:43:28;;;;;;;;;;;;;;;26.83;49.22;96805.53;5053924;28;20322;-71
2022/05/20 08:45:54;;;;;;;;;;;;;;;26.91;47.71;96789.41;5054190;28;19965;-71
2022/05/20 08:48:20;;;;;;;;;;;;;;;26.85;47.69;96779.09;5053855;28;19964;-72
2022/05/20 08:50:51;;;;;;;;;;;;;;;26.89;48.89;96790.84;5053944;28;19962;-71
2022/05/20 08:53:43;;;;;;;;;;;;;;;26.99;48.44;96787.06;5052263;28;19958;-72
2022/05/20 08:56:11;;;;;;;;;;;;;;;26.92;48.30;96785.63;5053833;28;20330;-73
2022/05/20 08:58:39;;;;;;;;;;;;;;;26.98;48.70;96780.06;5053437;28;19968;-72
2022/05/20 09:01:08;;;;;;;;;;;;;;;27.03;49.15;96788.78;5053747;28;20407;-72
2022/05/20 09:03:34;;;;;;;;;;;;;;;27.08;49.14;96788.63;5053646;28;19965;-73
2022/05/20 09:06:10;;;;;;;;;;;;;;;27.20;46.31;96752.22;5052937;28;19963;-73
2022/05/20 09:08:36;;;;;;;;;;;;;;;27.33;46.84;96770.13;5053576;28;20409;-74
2022/05/20 09:11:03;;;;;;;;;;;;;;;27.48;44.86;96756.13;5053453;28;19989;-72
2022/05/20 09:16:17;;;;;;;;;;;;;;;27.93;44.60;96746.88;5053168;28;19960;-72
2022/05/20 09:18:45;;;;;;;;;;;;;;;28.12;43.96;96733.78;5053629;28;20125;-71
2022/05/20 09:21:24;;;;;;;;;;;;;;;28.24;41.64;96719.59;5053469;28;19959;-70
2022/05/20 09:23:52;;;;;;;;;;;;;;;28.36;40.40;96691.91;5053332;28;19962;-72
2022/05/20 09:26:22;;;;;;;;;;;;;;;28.45;39.50;96752.00;5053350;28;19954;-72
2022/05/20 09:29:17;;;;;;;;;;;;;;;28.62;38.85;96750.34;5053737;28;20033;-72
2022/05/20 09:31:51;;;;;;;;;;;;;;;28.72;37.67;96771.56;5030516;28;19965;-72
2022/05/20 09:34:20;;;;;;;;;;;;;;;28.80;39.92;96786.91;5053447;28;19951;-72
2022/05/20 09:36:46;;;;;;;;;;;;;;;28.94;37.81;96783.97;5053195;28;20348;-72
2022/05/20 09:39:16;;;;;;;;;;;;;;;29.11;38.19;96783.84;5053489;28;19973;-72
2022/05/20 09:41:44;;;;;;;;;;;;;;;29.19;37.04;96768.69;5053813;28;19989;-72
2022/05/20 09:44:11;;;;;;;;;;;;;;;29.29;36.52;96772.88;5053181;28;19965;-72
2022/05/20 09:46:44;;;;;;;;;;;;;;;29.39;35.46;96763.59;5052454;28;20325;-72
2022/05/20 09:49:15;;;;;;;;;;;;;;;29.41;33.13;96754.03;5053364;28;19958;-72
2022/05/20 09:51:46;;;;;;;;;;;;;;;29.44;36.43;96766.88;5053252;28;19962;-72
2022/05/20 09:54:23;;;;;;;;;;;;;;;29.52;34.43;96760.59;5053448;28;19960;-72
2022/05/20 09:57:04;;;;;;;;;;;;;;;29.60;34.79;96755.44;5053310;28;19964;-72
2022/05/20 10:00:02;;;;;;;;;;;;;;;29.73;34.93;96760.56;5052275;28;19977;-72
2022/05/20 10:02:31;;;;;;;;;;;;;;;29.82;34.04;96757.78;5053502;28;19960;-71
2022/05/20 10:05:01;;;;;;;;;;;;;;;29.92;33.87;96743.81;5053053;28;19958;-71
2022/05/20 10:07:36;;;;;;;;;;;;;;;29.99;34.22;96739.75;5053169;28;19955;-71
2022/05/20 10:10:09;;;;;;;;;;;;;;;30.01;34.42;96751.00;5053159;28;19968;-72
2022/05/20 10:12:56;;;;;;;;;;;;;;;30.03;33.49;96752.28;5047210;28;19966;-71
2022/05/20 10:15:29;;;;;;;;;;;;;;;30.11;34.42;96756.78;5056561;28;19961;-71
2022/05/20 10:18:04;;;;;;;;;;;;;;;30.23;35.60;96758.69;5056590;28;20421;-71
2022/05/20 10:20:56;;;;;;;;;;;;;;;30.36;35.00;96756.81;5056691;28;19959;-72
2022/05/20 10:23:22;;;;;;;;;;;;;;;30.43;33.07;96759.75;5024954;28;19953;-71
2022/05/20 10:25:56;;;;;;;;;;;;;;;30.44;33.45;96764.00;5056463;28;19958;-71
2022/05/20 10:34:19;;;;;;;;;;;;;;;30.28;33.12;96757.66;5056549;28;19964;-72
2022/05/20 10:36:51;;;;;;;;;;;;;;;30.36;32.65;96740.56;5056440;28;19969;-71
2022/05/20 10:39:36;;;;;;;;;;;;;;;30.50;33.51;96745.63;5056073;28;20317;-72
2022/05/20 10:42:11;;;;;;;;;;;;;;;30.62;33.18;96732.09;5056507;28;19955;-71
2022/05/20 10:50:32;;;;;;;;;;;;;;;30.93;31.12;96717.94;5056068;28;19969;-71
2022/05/20 10:53:21;;;;;;;;;;;;;;;31.06;29.87;96707.06;5055730;28;19966;-71
2022/05/20 10:56:09;;;;;;;;;;;;;;;31.07;31.02;96719.44;5041075;28;19958;-72
2022/05/20 10:58:55;;;;;;;;;;;;;;;31.16;31.92;96717.38;5055751;28;19984;-71
2022/05/20 11:01:30;;;;;;;;;;;;;;;31.25;32.31;96703.69;5055992;28;20327;-71
2022/05/20 11:04:15;;;;;;;;;;;;;;;31.32;30.80;96688.41;5055738;28;19964;-72
2022/05/20 11:06:44;;;;;;;;;;;;;;;31.41;32.00;96696.38;5055803;28;20412;-71
2022/05/20 11:09:22;;;;;;;;;;;;;;;31.50;31.09;96678.06;5055570;28;20352;-71
2022/05/20 11:11:56;;;;;;;;;;;;;;;31.59;31.10;96677.88;5055546;28;19995;-71
2022/05/20 11:14:31;;;;;;;;;;;;;;;31.65;30.64;96662.16;5054497;28;20470;-71
2022/05/20 11:17:15;;;;;;;;;;;;;;;31.72;31.08;96646.03;5043703;28;19969;-70
2022/05/20 11:19:47;;;;;;;;;;;;;;;31.76;31.29;96641.50;5055437;28;20462;-72
2022/05/20 11:22:16;;;;;;;;;;;;;;;31.68;31.46;96640.53;5047803;28;19977;-70
2022/05/20 11:24:48;;;;;;;;;;;;;;;31.44;29.99;96633.38;5055510;28;20324;-71
2022/05/20 11:27:29;;;;;;;;;;;;;;;31.22;30.33;96632.00;5055337;28;20426;-71
2022/05/20 11:30:01;;;;;;;;;;;;;;;31.28;30.79;96619.00;5055292;28;20388;-71
2022/05/20 11:32:59;;;;;;;;;;;;;;;31.40;30.14;96601.88;4993606;28;20333;-71
2022/05/20 11:35:28;;;;;;;;;;;;;;;31.40;29.67;96591.81;4993840;28;20356;-71
2022/05/20 11:38:03;;;;;;;;;;;;;;;31.40;30.93;96593.75;5036082;28;20320;-71
2022/05/20 11:40:42;;;;;;;;;;;;;;;31.49;29.99;96572.69;5051343;28;19983;-71
2022/05/20 11:43:08;;;;;;;;;;;;;;;31.56;29.29;96545.72;5055286;28;19959;-71
2022/05/20 11:45:34;;;;;;;;;;;;;;;31.33;28.46;96542.84;5054619;28;19960;-70
2022/05/20 11:48:00;;;;;;;;;;;;;;;31.18;29.94;96559.91;5055000;28;19957;-71
2022/05/20 11:50:44;;;;;;;;;;;;;;;31.23;30.85;96563.16;5054990;28;19959;-71
2022/05/20 11:53:35;;;;;;;;;;;;;;;31.30;29.31;96554.41;5054817;28;19977;-71
2022/05/20 11:56:07;;;;;;;;;;;;;;;31.34;30.85;96552.56;5048288;28;19964;-71
2022/05/20 11:58:40;;;;;;;;;;;;;;;31.55;30.31;96546.88;5054699;28;19960;-71
2022/05/20 12:01:08;;;;;;;;;;;;;;;31.65;29.23;96551.00;5054690;28;19958;-72
2022/05/20 12:04:07;;;;;;;;;;;;;;;31.69;29.64;96549.94;5054762;28;19958;-71
2022/05/20 12:06:23;;;;;;;;;;;;;;;31.76;29.35;96544.66;5054568;28;19956;-72
2022/05/20 12:08:51;;;;;;;;;;;;;;;31.92;28.06;96539.19;5054464;28;19960;-72
2022/05/20 12:11:37;;;;;;;;;;;;;;;31.81;27.66;96545.50;5054419;28;19978;-72
2022/05/20 12:14:05;;;;;;;;;;;;;;;31.78;26.76;96525.31;5054366;28;19965;-72
2022/05/20 12:16:32;;;;;;;;;;;;;;;31.65;26.58;96519.25;5054519;28;19957;-71
2022/05/20 12:24:49;;;;;;;;;;;;;;;31.93;27.61;96496.56;5054462;28;19965;-71
2022/05/20 12:27:22;;;;;;;;;;;;;;;32.05;27.79;96501.91;5052991;28;19959;-71
2022/05/20 12:29:57;;;;;;;;;;;;;;;32.06;26.61;96483.69;5054073;28;19951;-72
2022/05/20 12:32:29;;;;;;;;;;;;;;;32.13;26.88;96481.91;5054285;28;19949;-72
2022/05/20 12:35:03;;;;;;;;;;;;;;;32.26;26.57;96479.06;5053600;28;19963;-71
2022/05/20 12:37:41;;;;;;;;;;;;;;;32.27;26.87;96470.53;5054055;28;19951;-71
2022/05/20 12:40:16;;;;;;;;;;;;;;;32.32;28.28;96469.47;5053884;28;20341;-72
2022/05/20 12:42:46;;;;;;;;;;;;;;;32.39;26.08;96460.69;5054002;28;19961;-72
2022/05/20 12:45:14;;;;;;;;;;;;;;;32.40;26.09;96452.16;5053825;28;19960;-72
2022/05/20 12:47:40;;;;;;;;;;;;;;;32.49;27.05;96457.38;5054198;28;19964;-72
2022/05/20 12:50:08;;;;;;;;;;;;;;;32.50;25.65;96461.66;5054038;28;20052;-71
2022/05/20 12:52:47;;;;;;;;;;;;;;;32.55;25.61;96459.47;5053258;28;19970;-72
2022/05/20 12:55:19;;;;;;;;;;;;;;;32.41;24.26;96448.31;5053957;28;19975;-72
2022/05/20 12:57:50;;;;;;;;;;;;;;;32.41;25.35;96451.03;5053879;28;19963;-72
2022/05/20 13:00:17;;;;;;;;;;;;;;;32.44;25.39;96444.09;5053721;28;20329;-71
2022/05/20 13:02:45;;;;;;;;;;;;;;;32.49;24.72;96435.66;5053555;28;19963;-71
2022/05/20 13:05:21;;;;;;;;;;;;;;;32.61;24.36;96438.19;5053406;28;19950;-72
2022/05/20 13:07:48;;;;;;;;;;;;;;;32.73;24.72;96429.09;5053551;28;19958;-72
2022/05/20 13:10:25;;;;;;;;;;;;;;;32.90;25.36;96425.88;5041279;28;19960;-72
2022/05/20 13:12:53;;;;;;;;;;;;;;;33.08;25.03;96422.69;5053464;28;19983;-71
2022/05/20 13:15:19;;;;;;;;;;;;;;;33.21;25.20;96413.19;5053533;28;19959;-71
2022/05/20 13:17:58;;;;;;;;;;;;;;;33.22;24.78;96401.16;5053467;28;19959;-71
2022/05/20 13:20:49;;;;;;;;;;;;;;;33.18;24.99;96405.78;5049073;28;19966;-72
2022/05/20 13:23:41;;;;;;;;;;;;;;;33.21;24.78;96398.81;5053647;28;19953;-71
2022/05/20 13:26:18;;;;;;;;;;;;;;;33.20;24.66;96391.78;5049235;28;19964;-72
2022/05/20 13:28:44;;;;;;;;;;;;;;;33.18;25.04;96384.03;5053811;28;20342;-71
2022/05/20 13:31:11;;;;;;;;;;;;;;;33.20;24.72;96376.28;5053460;28;19959;-72
2022/05/20 13:33:38;;;;;;;;;;;;;;;33.22;24.88;96374.00;5053366;28;19955;-71
2022/05/20 13:36:05;;;;;;;;;;;;;;;33.23;25.12;96380.97;5053211;28;19960;-72
2022/05/20 13:38:33;;;;;;;;;;;;;;;33.25;25.51;96369.75;5053310;28;20404;-72
2022/05/20 13:40:59;;;;;;;;;;;;;;;33.28;25.73;96369.00;5053013;28;19975;-72